sensor_id;sensor_type;location;lat;lon;timestamp;temperature;humidity
25050;DHT22;13046;49.814;9.918;2022-08-01T00:02:11;20.70;99.90
25050;DHT22;13046;49.814;9.918;2022-08-01T00:04:36;20.70;99.90
25050;DHT22;13046;49.814;9.918;2022-08-01T00:07:02;20.70;99.90
25050;DHT22;13046;49.814;9.918;2022-08-01T00:09:27;20.70;99.90
25050;DHT22;13046;49.814;9.918;2022-08-01T00:11:53;20.70;99.90
25050;DHT22;13046;49.814;9.918;2022-08-01T00:14:19;20.70;99.90
25050;DHT22;13046;49.814;9.918;2022-08-01T00:16:44;20.70;99.90
25050;DHT22;13046;49.814;9.918;2022-08-01T00:19:10;20.70;99.90
25050;DHT22;13046;49.814;9.918;2022-08-01T00:21:36;20.70;99.90
25050;DHT22;13046;49.814;9.918;2022-08-01T00:24:01;20.70;99.90
25050;DHT22;13046;49.814;9.918;2022-08-01T00:26:27;20.60;99.90
25050;DHT22;13046;49.814;9.918;2022-08-01T00:28:53;20.60;99.90
25050;DHT22;13046;49.814;9.918;2022-08-01T00:31:18;20.50;99.90
25050;DHT22;13046;49.814;9.918;2022-08-01T00:33:44;20.50;99.90
25050;DHT22;13046;49.814;9.918;2022-08-01T00:36:09;20.50;99.90
25050;DHT22;13046;49.814;9.918;2022-08-01T00:38:35;20.50;99.90
25050;DHT22;13046;49.814;9.918;2022-08-01T00:41:01;20.40;99.90
25050;DHT22;13046;49.814;9.918;2022-08-01T00:43:26;20.40;99.90
25050;DHT22;13046;49.814;9.918;2022-08-01T00:45:52;20.40;99.90
25050;DHT22;13046;49.814;9.918;2022-08-01T00:48:18;20.30;99.90
25050;DHT22;13046;49.814;9.918;2022-08-01T00:50:43;20.30;99.90
25050;DHT22;13046;49.814;9.918;2022-08-01T00:53:10;20.20;99.90
25050;DHT22;13046;49.814;9.918;2022-08-01T00:55:35;20.20;99.90
25050;DHT22;13046;49.814;9.918;2022-08-01T00:58:01;20.10;99.90
25050;DHT22;13046;49.814;9.918;2022-08-01T01:00:27;20.10;99.90
25050;DHT22;13046;49.814;9.918;2022-08-01T01:02:53;20.00;99.90
25050;DHT22;13046;49.814;9.918;2022-08-01T01:05:19;20.00;99.90
25050;DHT22;13046;49.814;9.918;2022-08-01T01:07:59;19.90;99.90
25050;DHT22;13046;49.814;9.918;2022-08-01T01:10:51;19.80;99.90
25050;DHT22;13046;49.814;9.918;2022-08-01T01:13:26;19.80;99.90
25050;DHT22;13046;49.814;9.918;2022-08-01T01:16:10;19.70;99.90
25050;DHT22;13046;49.814;9.918;2022-08-01T01:18:42;19.70;99.90
25050;DHT22;13046;49.814;9.918;2022-08-01T01:27:01;19.60;99.90
25050;DHT22;13046;49.814;9.918;2022-08-01T01:29:33;19.60;99.90
25050;DHT22;13046;49.814;9.918;2022-08-01T01:32:15;19.50;99.90
25050;DHT22;13046;49.814;9.918;2022-08-01T01:34:44;19.40;99.90
25050;DHT22;13046;49.814;9.918;2022-08-01T01:37:15;19.30;99.90
25050;DHT22;13046;49.814;9.918;2022-08-01T01:39:42;19.30;99.90
25050;DHT22;13046;49.814;9.918;2022-08-01T01:42:08;19.20;99.90
25050;DHT22;13046;49.814;9.918;2022-08-01T01:44:36;19.20;99.90
25050;DHT22;13046;49.814;9.918;2022-08-01T01:47:02;19.10;99.90
25050;DHT22;13046;49.814;9.918;2022-08-01T01:49:30;19.10;99.90
25050;DHT22;13046;49.814;9.918;2022-08-01T01:51:58;19.00;99.90
25050;DHT22;13046;49.814;9.918;2022-08-01T01:54:34;19.10;99.90
25050;DHT22;13046;49.814;9.918;2022-08-01T01:57:02;19.10;99.90
25050;DHT22;13046;49.814;9.918;2022-08-01T01:59:31;19.10;99.90
25050;DHT22;13046;49.814;9.918;2022-08-01T02:02:00;19.00;99.90
25050;DHT22;13046;49.814;9.918;2022-08-01T02:04:27;19.00;99.90
25050;DHT22;13046;49.814;9.918;2022-08-01T02:06:54;18.90;99.90
25050;DHT22;13046;49.814;9.918;2022-08-01T02:09:21;18.90;99.90
25050;DHT22;13046;49.814;9.918;2022-08-01T02:11:49;18.80;99.90
25050;DHT22;13046;49.814;9.918;2022-08-01T02:14:16;18.80;99.90
25050;DHT22;13046;49.814;9.918;2022-08-01T02:16:47;18.80;99.90
25050;DHT22;13046;49.814;9.918;2022-08-01T02:19:16;18.80;99.90
25050;DHT22;13046;49.814;9.918;2022-08-01T02:21:56;18.70;99.90
25050;DHT22;13046;49.814;9.918;2022-08-01T02:24:56;18.60;99.90
25050;DHT22;13046;49.814;9.918;2022-08-01T02:30:02;18.60;99.90
25050;DHT22;13046;49.814;9.918;2022-08-01T02:32:38;18.60;99.90
25050;DHT22;13046;49.814;9.918;2022-08-01T02:35:07;18.50;99.90
25050;DHT22;13046;49.814;9.918;2022-08-01T02:37:36;18.50;99.90
25050;DHT22;13046;49.814;9.918;2022-08-01T02:40:04;18.40;99.90
25050;DHT22;13046;49.814;9.918;2022-08-01T02:42:32;18.40;99.90
25050;DHT22;13046;49.814;9.918;2022-08-01T02:45:00;18.40;99.90
25050;DHT22;13046;49.814;9.918;2022-08-01T02:47:27;18.40;99.90
25050;DHT22;13046;49.814;9.918;2022-08-01T02:49:55;18.30;99.90
25050;DHT22;13046;49.814;9.918;2022-08-01T02:52:23;18.30;99.90
25050;DHT22;13046;49.814;9.918;2022-08-01T02:54:52;18.30;99.90
25050;DHT22;13046;49.814;9.918;2022-08-01T02:59:47;18.30;99.90
25050;DHT22;13046;49.814;9.918;2022-08-01T03:02:15;18.20;99.90
25050;DHT22;13046;49.814;9.918;2022-08-01T03:04:43;18.20;99.90
25050;DHT22;13046;49.814;9.918;2022-08-01T03:07:10;18.10;99.90
25050;DHT22;13046;49.814;9.918;2022-08-01T03:09:41;18.10;99.90
25050;DHT22;13046;49.814;9.918;2022-08-01T03:17:06;18.00;99.90
25050;DHT22;13046;49.814;9.918;2022-08-01T03:19:33;18.00;99.90
25050;DHT22;13046;49.814;9.918;2022-08-01T03:21:59;18.00;99.90
25050;DHT22;13046;49.814;9.918;2022-08-01T03:24:29;18.10;99.90
25050;DHT22;13046;49.814;9.918;2022-08-01T03:26:56;18.10;99.90
25050;DHT22;13046;49.814;9.918;2022-08-01T03:29:26;18.20;99.90
25050;DHT22;13046;49.814;9.918;2022-08-01T03:31:52;18.20;99.90
25050;DHT22;13046;49.814;9.918;2022-08-01T03:34:18;18.20;99.90
25050;DHT22;13046;49.814;9.918;2022-08-01T03:36:55;18.20;99.90
25050;DHT22;13046;49.814;9.918;2022-08-01T03:39:27;18.20;99.90
25050;DHT22;13046;49.814;9.918;2022-08-01T03:42:01;18.20;99.90
25050;DHT22;13046;49.814;9.918;2022-08-01T03:44:31;18.20;99.90
25050;DHT22;13046;49.814;9.918;2022-08-01T03:47:00;18.20;99.90
25050;DHT22;13046;49.814;9.918;2022-08-01T03:49:33;18.20;99.90
25050;DHT22;13046;49.814;9.918;2022-08-01T03:52:04;18.20;99.90
25050;DHT22;13046;49.814;9.918;2022-08-01T03:57:01;18.30;99.90
25050;DHT22;13046;49.814;9.918;2022-08-01T03:59:29;18.30;99.90
25050;DHT22;13046;49.814;9.918;2022-08-01T04:01:55;18.30;99.90
25050;DHT22;13046;49.814;9.918;2022-08-01T04:04:21;18.30;99.90
25050;DHT22;13046;49.814;9.918;2022-08-01T04:06:47;18.30;99.90
25050;DHT22;13046;49.814;9.918;2022-08-01T04:09:16;18.30;99.90
25050;DHT22;13046;49.814;9.918;2022-08-01T04:11:43;18.40;99.90
25050;DHT22;13046;49.814;9.918;2022-08-01T04:14:08;18.30;99.90
25050;DHT22;13046;49.814;9.918;2022-08-01T04:16:34;18.30;99.90
25050;DHT22;13046;49.814;9.918;2022-08-01T04:19:00;18.30;99.90
25050;DHT22;13046;49.814;9.918;2022-08-01T04:21:27;18.30;99.90
25050;DHT22;13046;49.814;9.918;2022-08-01T04:28:52;18.30;99.90
25050;DHT22;13046;49.814;9.918;2022-08-01T04:31:20;18.20;99.90
25050;DHT22;13046;49.814;9.918;2022-08-01T04:33:49;18.20;99.90
25050;DHT22;13046;49.814;9.918;2022-08-01T04:36:19;18.10;99.90
25050;DHT22;13046;49.814;9.918;2022-08-01T04:38:45;18.10;99.90
25050;DHT22;13046;49.814;9.918;2022-08-01T04:41:14;18.20;99.90
25050;DHT22;13046;49.814;9.918;2022-08-01T04:43:41;18.20;99.90
25050;DHT22;13046;49.814;9.918;2022-08-01T04:46:08;18.20;99.90
25050;DHT22;13046;49.814;9.918;2022-08-01T04:48:37;18.20;99.90
25050;DHT22;13046;49.814;9.918;2022-08-01T04:51:04;18.30;99.90
25050;DHT22;13046;49.814;9.918;2022-08-01T04:53:30;18.30;99.90
25050;DHT22;13046;49.814;9.918;2022-08-01T04:55:57;18.30;99.90
25050;DHT22;13046;49.814;9.918;2022-08-01T04:58:23;18.30;99.90
25050;DHT22;13046;49.814;9.918;2022-08-01T05:00:49;18.40;99.90
25050;DHT22;13046;49.814;9.918;2022-08-01T05:03:15;18.40;99.90
25050;DHT22;13046;49.814;9.918;2022-08-01T05:05:40;18.60;99.90
25050;DHT22;13046;49.814;9.918;2022-08-01T05:08:06;18.60;99.90
25050;DHT22;13046;49.814;9.918;2022-08-01T05:10:32;18.80;99.90
25050;DHT22;13046;49.814;9.918;2022-08-01T05:12:57;18.90;99.90
25050;DHT22;13046;49.814;9.918;2022-08-01T05:15:23;19.00;99.90
25050;DHT22;13046;49.814;9.918;2022-08-01T05:17:49;19.10;99.90
25050;DHT22;13046;49.814;9.918;2022-08-01T05:20:14;19.20;99.90
25050;DHT22;13046;49.814;9.918;2022-08-01T05:22:40;19.20;99.90
25050;DHT22;13046;49.814;9.918;2022-08-01T05:27:33;19.30;99.90
25050;DHT22;13046;49.814;9.918;2022-08-01T05:30:04;19.50;99.90
25050;DHT22;13046;49.814;9.918;2022-08-01T05:32:29;19.60;99.90
25050;DHT22;13046;49.814;9.918;2022-08-01T05:34:57;19.70;99.90
25050;DHT22;13046;49.814;9.918;2022-08-01T05:37:23;19.70;99.90
25050;DHT22;13046;49.814;9.918;2022-08-01T05:39:48;19.80;99.90
25050;DHT22;13046;49.814;9.918;2022-08-01T05:42:14;20.00;99.90
25050;DHT22;13046;49.814;9.918;2022-08-01T05:44:40;20.10;99.90
25050;DHT22;13046;49.814;9.918;2022-08-01T05:47:05;20.30;99.90
25050;DHT22;13046;49.814;9.918;2022-08-01T05:49:31;20.40;99.90
25050;DHT22;13046;49.814;9.918;2022-08-01T05:51:57;20.60;99.90
25050;DHT22;13046;49.814;9.918;2022-08-01T05:54:22;20.70;99.90
25050;DHT22;13046;49.814;9.918;2022-08-01T05:56:48;20.80;99.90
25050;DHT22;13046;49.814;9.918;2022-08-01T05:59:13;20.90;99.90
25050;DHT22;13046;49.814;9.918;2022-08-01T06:01:39;21.00;99.90
25050;DHT22;13046;49.814;9.918;2022-08-01T06:04:05;21.10;99.90
25050;DHT22;13046;49.814;9.918;2022-08-01T06:06:30;21.10;99.90
25050;DHT22;13046;49.814;9.918;2022-08-01T06:08:56;21.20;99.90
25050;DHT22;13046;49.814;9.918;2022-08-01T06:11:22;21.30;99.90
25050;DHT22;13046;49.814;9.918;2022-08-01T06:13:47;21.30;99.90
25050;DHT22;13046;49.814;9.918;2022-08-01T06:16:13;21.30;99.90
25050;DHT22;13046;49.814;9.918;2022-08-01T06:18:39;21.40;99.90
25050;DHT22;13046;49.814;9.918;2022-08-01T06:21:04;21.40;99.90
25050;DHT22;13046;49.814;9.918;2022-08-01T06:23:30;21.50;99.90
25050;DHT22;13046;49.814;9.918;2022-08-01T06:25:55;21.60;99.90
25050;DHT22;13046;49.814;9.918;2022-08-01T06:28:22;21.70;99.90
25050;DHT22;13046;49.814;9.918;2022-08-01T06:30:47;21.80;99.90
25050;DHT22;13046;49.814;9.918;2022-08-01T06:33:13;21.70;99.90
25050;DHT22;13046;49.814;9.918;2022-08-01T06:35:38;21.80;99.90
25050;DHT22;13046;49.814;9.918;2022-08-01T06:38:04;21.70;99.90
25050;DHT22;13046;49.814;9.918;2022-08-01T06:40:30;21.90;99.90
25050;DHT22;13046;49.814;9.918;2022-08-01T06:42:55;21.90;99.90
25050;DHT22;13046;49.814;9.918;2022-08-01T06:47:52;22.00;99.90
25050;DHT22;13046;49.814;9.918;2022-08-01T06:50:18;22.30;99.90
25050;DHT22;13046;49.814;9.918;2022-08-01T06:52:44;22.60;99.90
25050;DHT22;13046;49.814;9.918;2022-08-01T06:55:09;22.60;99.90
25050;DHT22;13046;49.814;9.918;2022-08-01T06:57:35;22.50;99.90
25050;DHT22;13046;49.814;9.918;2022-08-01T07:00:05;22.60;99.90
25050;DHT22;13046;49.814;9.918;2022-08-01T07:02:36;22.50;99.90
25050;DHT22;13046;49.814;9.918;2022-08-01T07:05:03;22.40;99.90
25050;DHT22;13046;49.814;9.918;2022-08-01T07:07:30;22.50;99.90
25050;DHT22;13046;49.814;9.918;2022-08-01T07:09:55;22.80;99.90
25050;DHT22;13046;49.814;9.918;2022-08-01T07:14:47;23.00;99.90
25050;DHT22;13046;49.814;9.918;2022-08-01T07:17:13;23.80;99.90
25050;DHT22;13046;49.814;9.918;2022-08-01T07:19:39;23.90;99.90
25050;DHT22;13046;49.814;9.918;2022-08-01T07:24:30;23.70;99.90
25050;DHT22;13046;49.814;9.918;2022-08-01T07:26:57;24.00;99.90
25050;DHT22;13046;49.814;9.918;2022-08-01T07:29:26;24.30;99.90
25050;DHT22;13046;49.814;9.918;2022-08-01T07:31:53;24.40;99.90
25050;DHT22;13046;49.814;9.918;2022-08-01T07:34:20;24.30;99.90
25050;DHT22;13046;49.814;9.918;2022-08-01T07:36:46;24.50;99.90
25050;DHT22;13046;49.814;9.918;2022-08-01T07:39:11;24.60;99.90
25050;DHT22;13046;49.814;9.918;2022-08-01T07:41:37;24.30;99.90
25050;DHT22;13046;49.814;9.918;2022-08-01T07:44:03;24.30;99.90
25050;DHT22;13046;49.814;9.918;2022-08-01T07:46:28;24.60;99.90
25050;DHT22;13046;49.814;9.918;2022-08-01T07:48:56;24.50;99.90
25050;DHT22;13046;49.814;9.918;2022-08-01T07:51:21;24.40;99.90
25050;DHT22;13046;49.814;9.918;2022-08-01T07:53:47;24.20;99.90
25050;DHT22;13046;49.814;9.918;2022-08-01T07:56:14;24.00;99.90
25050;DHT22;13046;49.814;9.918;2022-08-01T07:58:40;24.00;99.90
25050;DHT22;13046;49.814;9.918;2022-08-01T08:01:06;24.30;99.90
25050;DHT22;13046;49.814;9.918;2022-08-01T08:03:31;24.30;99.90
25050;DHT22;13046;49.814;9.918;2022-08-01T08:05:57;24.50;99.90
25050;DHT22;13046;49.814;9.918;2022-08-01T08:08:23;24.90;99.90
25050;DHT22;13046;49.814;9.918;2022-08-01T08:10:49;24.80;99.90
25050;DHT22;13046;49.814;9.918;2022-08-01T08:15:41;24.80;99.90
25050;DHT22;13046;49.814;9.918;2022-08-01T08:18:06;24.20;99.90
25050;DHT22;13046;49.814;9.918;2022-08-01T08:20:32;24.00;99.90
25050;DHT22;13046;49.814;9.918;2022-08-01T08:22:58;24.00;99.90
25050;DHT22;13046;49.814;9.918;2022-08-01T08:27:51;24.40;99.90
25050;DHT22;13046;49.814;9.918;2022-08-01T08:30:17;25.20;99.90
25050;DHT22;13046;49.814;9.918;2022-08-01T08:32:43;25.00;99.90
25050;DHT22;13046;49.814;9.918;2022-08-01T08:35:09;24.70;99.90
25050;DHT22;13046;49.814;9.918;2022-08-01T08:37:35;24.50;99.90
25050;DHT22;13046;49.814;9.918;2022-08-01T08:40:03;24.30;99.90
25050;DHT22;13046;49.814;9.918;2022-08-01T08:42:29;24.20;99.90
25050;DHT22;13046;49.814;9.918;2022-08-01T08:44:55;24.10;99.90
25050;DHT22;13046;49.814;9.918;2022-08-01T08:47:21;24.20;99.90
25050;DHT22;13046;49.814;9.918;2022-08-01T08:52:18;24.30;99.90
25050;DHT22;13046;49.814;9.918;2022-08-01T09:04:32;25.70;99.90
25050;DHT22;13046;49.814;9.918;2022-08-01T09:06:58;25.80;99.90
25050;DHT22;13046;49.814;9.918;2022-08-01T09:09:24;25.10;99.90
25050;DHT22;13046;49.814;9.918;2022-08-01T09:11:50;24.60;99.90
25050;DHT22;13046;49.814;9.918;2022-08-01T09:14:18;24.60;99.90
25050;DHT22;13046;49.814;9.918;2022-08-01T09:17:09;24.60;99.90
25050;DHT22;13046;49.814;9.918;2022-08-01T09:19:39;24.70;99.90
25050;DHT22;13046;49.814;9.918;2022-08-01T09:22:11;24.70;99.90
25050;DHT22;13046;49.814;9.918;2022-08-01T09:24:38;24.60;99.90
25050;DHT22;13046;49.814;9.918;2022-08-01T09:27:19;24.50;99.90
25050;DHT22;13046;49.814;9.918;2022-08-01T09:29:44;24.70;99.90
25050;DHT22;13046;49.814;9.918;2022-08-01T09:32:11;24.80;99.90
25050;DHT22;13046;49.814;9.918;2022-08-01T09:34:37;24.90;99.90
25050;DHT22;13046;49.814;9.918;2022-08-01T09:37:03;24.90;99.90
25050;DHT22;13046;49.814;9.918;2022-08-01T09:39:36;25.00;99.90
25050;DHT22;13046;49.814;9.918;2022-08-01T09:42:23;25.30;99.90
25050;DHT22;13046;49.814;9.918;2022-08-01T09:44:50;25.80;99.90
25050;DHT22;13046;49.814;9.918;2022-08-01T09:47:16;26.00;99.90
25050;DHT22;13046;49.814;9.918;2022-08-01T09:49:43;25.90;99.90
25050;DHT22;13046;49.814;9.918;2022-08-01T09:52:14;25.40;99.90
25050;DHT22;13046;49.814;9.918;2022-08-01T09:54:42;25.30;99.90
25050;DHT22;13046;49.814;9.918;2022-08-01T09:57:10;25.20;99.90
25050;DHT22;13046;49.814;9.918;2022-08-01T09:59:38;25.30;99.90
25050;DHT22;13046;49.814;9.918;2022-08-01T10:02:11;25.90;99.90
25050;DHT22;13046;49.814;9.918;2022-08-01T10:04:46;26.20;99.90
25050;DHT22;13046;49.814;9.918;2022-08-01T10:07:13;26.40;99.90
25050;DHT22;13046;49.814;9.918;2022-08-01T10:09:41;26.00;99.90
25050;DHT22;13046;49.814;9.918;2022-08-01T10:12:09;26.10;99.90
25050;DHT22;13046;49.814;9.918;2022-08-01T10:17:02;27.00;99.90
25050;DHT22;13046;49.814;9.918;2022-08-01T10:19:30;27.80;99.90
25050;DHT22;13046;49.814;9.918;2022-08-01T10:21:58;27.50;99.90
25050;DHT22;13046;49.814;9.918;2022-08-01T10:26:56;27.10;99.90
25050;DHT22;13046;49.814;9.918;2022-08-01T10:29:25;26.40;99.90
25050;DHT22;13046;49.814;9.918;2022-08-01T10:31:51;26.50;99.90
25050;DHT22;13046;49.814;9.918;2022-08-01T10:34:17;26.40;99.90
25050;DHT22;13046;49.814;9.918;2022-08-01T10:39:12;26.20;99.90
25050;DHT22;13046;49.814;9.918;2022-08-01T10:41:39;26.90;99.90
25050;DHT22;13046;49.814;9.918;2022-08-01T10:44:09;27.30;99.90
25050;DHT22;13046;49.814;9.918;2022-08-01T10:46:37;27.30;99.90
25050;DHT22;13046;49.814;9.918;2022-08-01T10:49:30;27.90;99.90
25050;DHT22;13046;49.814;9.918;2022-08-01T10:51:57;28.80;99.90
25050;DHT22;13046;49.814;9.918;2022-08-01T10:54:26;29.60;99.90
25050;DHT22;13046;49.814;9.918;2022-08-01T10:56:52;29.90;99.90
25050;DHT22;13046;49.814;9.918;2022-08-01T10:59:27;29.00;99.90
25050;DHT22;13046;49.814;9.918;2022-08-01T11:02:27;28.30;99.90
25050;DHT22;13046;49.814;9.918;2022-08-01T11:04:54;27.70;99.90
25050;DHT22;13046;49.814;9.918;2022-08-01T11:07:45;27.30;99.90
25050;DHT22;13046;49.814;9.918;2022-08-01T11:10:24;26.80;99.90
25050;DHT22;13046;49.814;9.918;2022-08-01T11:12:51;26.60;99.90
25050;DHT22;13046;49.814;9.918;2022-08-01T11:15:19;27.20;99.90
25050;DHT22;13046;49.814;9.918;2022-08-01T11:17:53;28.00;99.90
25050;DHT22;13046;49.814;9.918;2022-08-01T11:20:31;29.00;99.90
25050;DHT22;13046;49.814;9.918;2022-08-01T11:26:05;28.40;99.90
25050;DHT22;13046;49.814;9.918;2022-08-01T11:30:44;28.00;99.90
25050;DHT22;13046;49.814;9.918;2022-08-01T11:33:10;27.80;99.90
25050;DHT22;13046;49.814;9.918;2022-08-01T11:35:36;27.80;99.90
25050;DHT22;13046;49.814;9.918;2022-08-01T11:38:27;27.60;99.90
25050;DHT22;13046;49.814;9.918;2022-08-01T11:46:47;27.20;99.90
25050;DHT22;13046;49.814;9.918;2022-08-01T11:51:48;28.00;99.90
25050;DHT22;13046;49.814;9.918;2022-08-01T11:54:15;28.20;99.90
25050;DHT22;13046;49.814;9.918;2022-08-01T11:56:41;28.30;99.90
25050;DHT22;13046;49.814;9.918;2022-08-01T11:59:07;28.60;99.90
25050;DHT22;13046;49.814;9.918;2022-08-01T12:01:33;28.60;99.90
25050;DHT22;13046;49.814;9.918;2022-08-01T12:03:59;28.00;99.90
25050;DHT22;13046;49.814;9.918;2022-08-01T12:06:28;27.70;99.90
25050;DHT22;13046;49.814;9.918;2022-08-01T12:08:54;27.70;99.90
25050;DHT22;13046;49.814;9.918;2022-08-01T12:11:19;27.20;99.90
25050;DHT22;13046;49.814;9.918;2022-08-01T12:13:45;26.90;99.90
25050;DHT22;13046;49.814;9.918;2022-08-01T12:16:12;26.90;99.90
25050;DHT22;13046;49.814;9.918;2022-08-01T12:18:41;27.00;99.90
25050;DHT22;13046;49.814;9.918;2022-08-01T12:21:07;27.80;99.90
25050;DHT22;13046;49.814;9.918;2022-08-01T12:23:33;28.10;99.90
25050;DHT22;13046;49.814;9.918;2022-08-01T12:25:59;28.80;99.90
25050;DHT22;13046;49.814;9.918;2022-08-01T12:28:25;29.30;99.90
25050;DHT22;13046;49.814;9.918;2022-08-01T12:30:51;29.00;99.90
25050;DHT22;13046;49.814;9.918;2022-08-01T12:33:19;28.80;99.90
25050;DHT22;13046;49.814;9.918;2022-08-01T12:35:45;29.00;99.90
25050;DHT22;13046;49.814;9.918;2022-08-01T12:38:16;29.80;99.90
25050;DHT22;13046;49.814;9.918;2022-08-01T12:40:44;30.00;99.90
25050;DHT22;13046;49.814;9.918;2022-08-01T12:43:16;29.30;99.90
25050;DHT22;13046;49.814;9.918;2022-08-01T12:45:44;28.70;99.90
25050;DHT22;13046;49.814;9.918;2022-08-01T12:48:11;29.00;99.90
25050;DHT22;13046;49.814;9.918;2022-08-01T12:50:39;29.60;99.90
25050;DHT22;13046;49.814;9.918;2022-08-01T12:53:06;29.10;99.90
25050;DHT22;13046;49.814;9.918;2022-08-01T12:55:33;28.50;99.90
25050;DHT22;13046;49.814;9.918;2022-08-01T12:58:10;28.20;99.90
25050;DHT22;13046;49.814;9.918;2022-08-01T13:00:38;27.70;99.90
25050;DHT22;13046;49.814;9.918;2022-08-01T13:03:09;27.50;99.90
25050;DHT22;13046;49.814;9.918;2022-08-01T13:08:10;28.20;99.90
25050;DHT22;13046;49.814;9.918;2022-08-01T13:10:36;28.20;99.90
25050;DHT22;13046;49.814;9.918;2022-08-01T13:13:02;27.90;99.90
25050;DHT22;13046;49.814;9.918;2022-08-01T13:18:02;28.00;99.90
25050;DHT22;13046;49.814;9.918;2022-08-01T13:20:46;28.20;99.90
25050;DHT22;13046;49.814;9.918;2022-08-01T13:23:17;28.40;99.90
25050;DHT22;13046;49.814;9.918;2022-08-01T13:25:55;29.00;99.90
25050;DHT22;13046;49.814;9.918;2022-08-01T13:28:26;29.70;99.90
25050;DHT22;13046;49.814;9.918;2022-08-01T13:31:06;30.30;99.90
25050;DHT22;13046;49.814;9.918;2022-08-01T13:33:47;31.10;99.90
25050;DHT22;13046;49.814;9.918;2022-08-01T13:36:14;30.30;99.90
25050;DHT22;13046;49.814;9.918;2022-08-01T13:38:41;29.80;99.90
25050;DHT22;13046;49.814;9.918;2022-08-01T13:41:26;29.30;99.90
25050;DHT22;13046;49.814;9.918;2022-08-01T13:43:52;28.80;99.90
25050;DHT22;13046;49.814;9.918;2022-08-01T13:46:18;28.70;99.90
25050;DHT22;13046;49.814;9.918;2022-08-01T13:48:44;28.60;99.90
25050;DHT22;13046;49.814;9.918;2022-08-01T13:51:09;28.40;99.90
25050;DHT22;13046;49.814;9.918;2022-08-01T13:53:35;28.30;99.90
25050;DHT22;13046;49.814;9.918;2022-08-01T13:56:02;28.40;99.90
25050;DHT22;13046;49.814;9.918;2022-08-01T13:58:27;28.70;99.90
25050;DHT22;13046;49.814;9.918;2022-08-01T14:00:54;29.40;99.90
25050;DHT22;13046;49.814;9.918;2022-08-01T14:03:21;30.10;99.90
25050;DHT22;13046;49.814;9.918;2022-08-01T14:05:47;30.60;99.90
25050;DHT22;13046;49.814;9.918;2022-08-01T14:08:14;30.90;99.90
25050;DHT22;13046;49.814;9.918;2022-08-01T14:10:40;30.50;99.90
25050;DHT22;13046;49.814;9.918;2022-08-01T14:13:05;30.50;99.90
25050;DHT22;13046;49.814;9.918;2022-08-01T14:15:32;30.40;99.90
25050;DHT22;13046;49.814;9.918;2022-08-01T14:17:57;30.40;99.90
25050;DHT22;13046;49.814;9.918;2022-08-01T14:20:23;29.70;99.90
25050;DHT22;13046;49.814;9.918;2022-08-01T14:22:49;29.40;99.90
25050;DHT22;13046;49.814;9.918;2022-08-01T14:25:15;29.20;99.90
25050;DHT22;13046;49.814;9.918;2022-08-01T14:27:41;29.20;99.90
25050;DHT22;13046;49.814;9.918;2022-08-01T14:30:08;29.30;99.90
25050;DHT22;13046;49.814;9.918;2022-08-01T14:32:34;29.60;99.90
25050;DHT22;13046;49.814;9.918;2022-08-01T14:35:05;29.80;99.90
25050;DHT22;13046;49.814;9.918;2022-08-01T14:37:31;29.90;99.90
25050;DHT22;13046;49.814;9.918;2022-08-01T14:39:58;29.90;99.90
25050;DHT22;13046;49.814;9.918;2022-08-01T14:42:24;29.30;99.90
25050;DHT22;13046;49.814;9.918;2022-08-01T14:44:49;29.40;99.20
25050;DHT22;13046;49.814;9.918;2022-08-01T14:47:15;29.50;99.00
25050;DHT22;13046;49.814;9.918;2022-08-01T14:49:41;29.30;99.10
25050;DHT22;13046;49.814;9.918;2022-08-01T14:52:06;29.00;99.90
25050;DHT22;13046;49.814;9.918;2022-08-01T14:54:32;28.90;98.60
25050;DHT22;13046;49.814;9.918;2022-08-01T14:56:58;28.80;98.10
25050;DHT22;13046;49.814;9.918;2022-08-01T14:59:24;28.70;98.30
25050;DHT22;13046;49.814;9.918;2022-08-01T15:01:49;28.80;98.50
25050;DHT22;13046;49.814;9.918;2022-08-01T15:04:15;28.90;98.30
25050;DHT22;13046;49.814;9.918;2022-08-01T15:06:43;29.10;98.20
25050;DHT22;13046;49.814;9.918;2022-08-01T15:09:08;29.50;98.10
25050;DHT22;13046;49.814;9.918;2022-08-01T15:11:34;29.60;98.10
25050;DHT22;13046;49.814;9.918;2022-08-01T15:14:00;29.80;98.40
25050;DHT22;13046;49.814;9.918;2022-08-01T15:16:44;29.80;98.90
25050;DHT22;13046;49.814;9.918;2022-08-01T15:19:10;29.60;99.70
25050;DHT22;13046;49.814;9.918;2022-08-01T15:21:35;29.60;99.90
25050;DHT22;13046;49.814;9.918;2022-08-01T15:24:01;29.50;99.90
25050;DHT22;13046;49.814;9.918;2022-08-01T15:26:26;29.30;99.90
25050;DHT22;13046;49.814;9.918;2022-08-01T15:28:53;29.20;99.90
25050;DHT22;13046;49.814;9.918;2022-08-01T15:31:19;29.20;99.90
25050;DHT22;13046;49.814;9.918;2022-08-01T15:33:44;29.30;99.90
25050;DHT22;13046;49.814;9.918;2022-08-01T15:36:10;29.10;99.90
25050;DHT22;13046;49.814;9.918;2022-08-01T15:38:36;29.20;99.90
25050;DHT22;13046;49.814;9.918;2022-08-01T15:41:01;29.00;99.90
25050;DHT22;13046;49.814;9.918;2022-08-01T15:43:27;29.00;99.90
25050;DHT22;13046;49.814;9.918;2022-08-01T15:45:53;29.00;99.80
25050;DHT22;13046;49.814;9.918;2022-08-01T15:48:18;29.00;99.90
25050;DHT22;13046;49.814;9.918;2022-08-01T15:50:44;29.10;99.90
25050;DHT22;13046;49.814;9.918;2022-08-01T15:53:10;29.00;99.80
25050;DHT22;13046;49.814;9.918;2022-08-01T15:55:37;28.90;99.90
25050;DHT22;13046;49.814;9.918;2022-08-01T15:58:03;28.80;99.90
25050;DHT22;13046;49.814;9.918;2022-08-01T16:00:28;28.80;99.90
25050;DHT22;13046;49.814;9.918;2022-08-01T16:02:54;28.80;99.90
25050;DHT22;13046;49.814;9.918;2022-08-01T16:05:24;28.90;99.90
25050;DHT22;13046;49.814;9.918;2022-08-01T16:07:50;29.00;99.90
25050;DHT22;13046;49.814;9.918;2022-08-01T16:10:16;28.80;99.90
25050;DHT22;13046;49.814;9.918;2022-08-01T16:12:41;28.60;99.90
25050;DHT22;13046;49.814;9.918;2022-08-01T16:15:07;28.60;99.90
25050;DHT22;13046;49.814;9.918;2022-08-01T16:17:33;28.60;99.90
25050;DHT22;13046;49.814;9.918;2022-08-01T16:19:59;28.60;99.90
25050;DHT22;13046;49.814;9.918;2022-08-01T16:22:25;28.60;99.90
25050;DHT22;13046;49.814;9.918;2022-08-01T16:24:51;28.60;99.90
25050;DHT22;13046;49.814;9.918;2022-08-01T16:27:16;28.60;99.90
25050;DHT22;13046;49.814;9.918;2022-08-01T16:29:42;28.50;99.90
25050;DHT22;13046;49.814;9.918;2022-08-01T16:32:08;28.50;99.90
25050;DHT22;13046;49.814;9.918;2022-08-01T16:34:34;28.60;99.90
25050;DHT22;13046;49.814;9.918;2022-08-01T16:36:59;28.70;99.90
25050;DHT22;13046;49.814;9.918;2022-08-01T16:39:25;28.70;99.90
25050;DHT22;13046;49.814;9.918;2022-08-01T16:41:51;28.60;99.90
25050;DHT22;13046;49.814;9.918;2022-08-01T16:44:17;28.50;99.90
25050;DHT22;13046;49.814;9.918;2022-08-01T16:46:42;28.40;99.90
25050;DHT22;13046;49.814;9.918;2022-08-01T16:49:08;28.40;99.90
25050;DHT22;13046;49.814;9.918;2022-08-01T16:51:35;28.40;99.90